Time,TemperatureF,DewpointF,PressureIn,WindDirection,WindDirectionDegrees,WindSpeedMPH,WindSpeedGustMPH,Humidity,HourlyPrecipIn,Conditions,Clouds,dailyrainin,SoftwareType,DateUTC
2013-09-24 00:13:00,54.0,53.0,29.70,SSW,205,6.0,-999.0,96,-99.99,,,-99.99,,2013-09-24 05:13:00,
2013-09-24 00:23:00,54.0,53.0,29.70,SSW,205,6.0,-999.0,96,-99.99,,,-99.99,,2013-09-24 05:23:00,
2013-09-24 00:53:00,54.0,53.0,29.70,SSW,204,6.0,-999.0,96,-99.99,,,-99.99,,2013-09-24 05:53:00,
2013-09-24 01:12:00,54.0,53.0,29.70,SSW,205,7.0,-999.0,96,-99.99,,,-99.99,,2013-09-24 06:12:00,
2013-09-24 01:22:00,53.0,52.0,29.71,SSW,205,5.0,-999.0,96,-99.99,,,-99.99,,2013-09-24 06:22:00,
2013-09-24 01:42:00,53.0,52.0,29.71,SSW,205,2.0,-999.0,95,-99.99,,,-99.99,,2013-09-24 06:42:00,
2013-09-24 01:52:00,53.0,52.0,29.72,SSW,205,3.0,-999.0,95,-99.99,,,-99.99,,2013-09-24 06:52:00,
2013-09-24 02:12:00,53.0,51.0,29.72,SSW,205,5.0,-999.0,94,-99.99,,,-99.99,,2013-09-24 07:12:00,
2013-09-24 02:22:00,53.0,51.0,29.72,SSW,206,6.0,-999.0,93,-99.99,,,-99.99,,2013-09-24 07:22:00,
2013-09-24 02:52:00,52.0,50.0,29.73,SSW,206,4.0,-999.0,93,-99.99,,,-99.99,,2013-09-24 07:52:00,
2013-09-24 03:11:00,52.0,50.0,29.73,SSW,206,4.0,-999.0,92,-99.99,,,-99.99,,2013-09-24 08:11:00,
2013-09-24 03:22:00,51.0,49.0,29.74,SSW,206,1.0,-999.0,92,-99.99,,,-99.99,,2013-09-24 08:22:00,
2013-09-24 03:42:00,51.0,49.0,29.73,SSW,206,1.0,-999.0,92,-99.99,,,-99.99,,2013-09-24 08:42:00,
2013-09-24 03:52:00,50.0,48.0,29.74,SSW,206,2.0,-999.0,92,-99.99,,,-99.99,,2013-09-24 08:52:00,
2013-09-24 04:12:00,50.0,47.0,29.74,SSW,206,2.0,-999.0,91,-99.99,,,-99.99,,2013-09-24 09:12:00,
2013-09-24 04:21:00,50.0,47.0,29.75,SSW,206,0.0,-999.0,91,-99.99,,,-99.99,,2013-09-24 09:21:00,
2013-09-24 04:43:00,49.0,46.0,29.75,SSW,206,1.0,-999.0,90,-99.99,,,-99.99,,2013-09-24 09:43:00,
2013-09-24 04:53:00,49.0,46.0,29.76,SSW,206,1.0,-999.0,90,-99.99,,,-99.99,,2013-09-24 09:53:00,
2013-09-24 05:23:00,49.0,45.0,29.77,WSW,246,4.0,-999.0,86,-99.99,,,-99.99,,2013-09-24 10:23:00,
2013-09-24 05:53:00,49.0,44.0,29.78,WSW,249,3.0,-999.0,84,-99.99,,,-99.99,,2013-09-24 10:53:00,
2013-09-24 06:22:00,49.0,44.0,29.78,West,261,6.0,-999.0,83,-99.99,,,-99.99,,2013-09-24 11:22:00,
2013-09-24 06:52:00,49.0,44.0,29.79,West,262,6.0,-999.0,83,-99.99,,,-99.99,,2013-09-24 11:52:00,
2013-09-24 07:12:00,48.0,42.0,29.79,West,261,3.0,-999.0,81,-99.99,,,-99.99,,2013-09-24 12:12:00,
2013-09-24 07:22:00,47.0,42.0,29.80,West,260,3.0,-999.0,83,-99.99,,,-99.99,,2013-09-24 12:22:00,
2013-09-24 07:42:00,47.0,42.0,29.80,West,259,1.0,-999.0,84,-99.99,,,-99.99,,2013-09-24 12:42:00,
2013-09-24 07:52:00,47.0,42.0,29.81,WSW,257,3.0,-999.0,84,-99.99,,,-99.99,,2013-09-24 12:52:00,
2013-09-24 08:11:00,47.0,42.0,29.81,WSW,257,5.0,-999.0,83,-99.99,,,-99.99,,2013-09-24 13:11:00,
2013-09-24 08:22:00,47.0,42.0,29.81,WSW,253,4.0,-999.0,83,-99.99,,,-99.99,,2013-09-24 13:22:00,
2013-09-24 08:52:00,48.0,43.0,29.82,West,260,7.0,-999.0,82,-99.99,,,-99.99,,2013-09-24 13:52:00,
2013-09-24 09:12:00,49.0,44.0,29.83,West,259,8.0,-999.0,82,-99.99,,,-99.99,,2013-09-24 14:12:00,
2013-09-24 09:21:00,50.0,44.0,29.84,WSW,255,9.0,-999.0,81,-99.99,,,-99.99,,2013-09-24 14:21:00,
2013-09-24 09:52:00,53.0,47.0,29.84,West,263,6.0,-999.0,79,-99.99,,,-99.99,,2013-09-24 14:52:00,
2013-09-24 10:22:00,55.0,46.0,29.85,West,266,10.0,-999.0,72,-99.99,,,-99.99,,2013-09-24 15:22:00,
2013-09-24 10:43:00,56.0,47.0,29.85,West,263,9.0,-999.0,72,-99.99,,,-99.99,,2013-09-24 15:43:00,
2013-09-24 10:53:00,58.0,48.0,29.85,West,262,8.0,-999.0,69,-99.99,,,-99.99,,2013-09-24 15:53:00,
2013-09-24 11:13:00,59.0,48.0,29.85,West,260,7.0,-999.0,68,-99.99,,,-99.99,,2013-09-24 16:13:00,
2013-09-24 11:23:00,60.0,49.0,29.85,West,275,9.0,-999.0,66,-99.99,,,-99.99,,2013-09-24 16:23:00,
2013-09-24 11:43:00,61.0,49.0,29.85,West,266,9.0,-999.0,64,-99.99,,,-99.99,,2013-09-24 16:43:00,
2013-09-24 11:53:00,62.0,49.0,29.85,West,269,9.0,-999.0,63,-99.99,,,-99.99,,2013-09-24 16:53:00,
2013-09-24 12:13:00,63.0,49.0,29.85,West,263,7.0,-999.0,61,-99.99,,,-99.99,,2013-09-24 17:13:00,
2013-09-24 12:23:00,64.0,48.0,29.85,West,271,8.0,-999.0,57,-99.99,,,-99.99,,2013-09-24 17:23:00,
2013-09-24 12:53:00,66.0,47.0,29.85,WSW,252,10.0,-999.0,51,-99.99,,,-99.99,,2013-09-24 17:53:00,
2013-09-24 13:22:00,67.0,46.0,29.85,WSW,256,9.0,-999.0,47,-99.99,,,-99.99,,2013-09-24 18:22:00,
2013-09-24 13:52:00,67.0,47.0,29.84,SW,217,7.0,-999.0,49,-99.99,,,-99.99,,2013-09-24 18:52:00,
2013-09-24 14:11:00,68.0,46.0,29.84,West,277,8.0,-999.0,46,-99.99,,,-99.99,,2013-09-24 19:11:00,
2013-09-24 14:22:00,69.0,48.0,29.83,West,269,8.0,-999.0,48,-99.99,,,-99.99,,2013-09-24 19:22:00,
2013-09-24 14:52:00,70.0,49.0,29.82,West,277,6.0,-999.0,47,-99.99,,,-99.99,,2013-09-24 19:52:00,
2013-09-24 15:11:00,69.0,46.0,29.82,West,270,8.0,-999.0,43,-99.99,,,-99.99,,2013-09-24 20:11:00,
2013-09-24 15:22:00,69.0,44.0,29.82,WSW,256,7.0,-999.0,40,-99.99,,,-99.99,,2013-09-24 20:22:00,
2013-09-24 15:52:00,70.0,48.0,29.81,WSW,252,5.0,-999.0,45,-99.99,,,-99.99,,2013-09-24 20:52:00,
2013-09-24 16:22:00,70.0,45.0,29.80,West,261,9.0,-999.0,41,-99.99,,,-99.99,,2013-09-24 21:22:00,
2013-09-24 16:43:00,70.0,45.0,29.80,West,264,6.0,-999.0,40,-99.99,,,-99.99,,2013-09-24 21:43:00,
2013-09-24 16:54:00,70.0,45.0,29.80,West,259,7.0,-999.0,41,-99.99,,,-99.99,,2013-09-24 21:54:00,
2013-09-24 17:23:00,71.0,45.0,29.80,West,269,3.0,-999.0,40,-99.99,,,-99.99,,2013-09-24 22:23:00,
2013-09-24 17:53:00,71.0,46.0,29.79,SSW,208,3.0,-999.0,41,-99.99,,,-99.99,,2013-09-24 22:53:00,
2013-09-24 18:22:00,71.0,44.0,29.78,SW,221,2.0,-999.0,38,-99.99,,,-99.99,,2013-09-24 23:22:00,
2013-09-24 18:53:00,70.0,48.0,29.78,SSW,207,3.0,-999.0,46,-99.99,,,-99.99,,2013-09-24 23:53:00,
2013-09-24 19:12:00,69.0,49.0,29.78,SSW,206,1.0,-999.0,49,-99.99,,,-99.99,,2013-09-25 00:12:00,
2013-09-24 19:22:00,68.0,49.0,29.78,SSW,206,1.0,-999.0,50,-99.99,,,-99.99,,2013-09-25 00:22:00,
2013-09-24 19:42:00,66.0,49.0,29.77,SSW,206,0.0,-999.0,54,-99.99,,,-99.99,,2013-09-25 00:42:00,
2013-09-24 19:52:00,65.0,49.0,29.77,SSW,206,0.0,-999.0,56,-99.99,,,-99.99,,2013-09-25 00:52:00,
2013-09-24 20:21:00,60.0,48.0,29.78,SSW,206,1.0,-999.0,65,-99.99,,,-99.99,,2013-09-25 01:21:00,
2013-09-24 20:42:00,59.0,48.0,29.77,SSW,206,0.0,-999.0,66,-99.99,,,-99.99,,2013-09-25 01:42:00,
2013-09-24 20:52:00,56.0,49.0,29.77,SSW,206,0.0,-999.0,76,-99.99,,,-99.99,,2013-09-25 01:52:00,
2013-09-24 21:12:00,55.0,49.0,29.77,SSW,206,0.0,-999.0,81,-99.99,,,-99.99,,2013-09-25 02:12:00,
2013-09-24 21:22:00,53.0,48.0,29.77,SSW,206,0.0,-999.0,82,-99.99,,,-99.99,,2013-09-25 02:22:00,
2013-09-24 21:42:00,52.0,47.0,29.77,SSW,206,0.0,-999.0,82,-99.99,,,-99.99,,2013-09-25 02:42:00,
2013-09-24 21:52:00,53.0,48.0,29.77,SSW,206,0.0,-999.0,82,-99.99,,,-99.99,,2013-09-25 02:52:00,
2013-09-24 22:23:00,52.0,47.0,29.76,SSW,206,0.0,-999.0,82,-99.99,,,-99.99,,2013-09-25 03:23:00,
2013-09-24 22:44:00,52.0,47.0,29.76,SSW,206,0.0,-999.0,82,-99.99,,,-99.99,,2013-09-25 03:44:00,
2013-09-24 22:54:00,51.0,46.0,29.76,SSW,206,0.0,-999.0,83,-99.99,,,-99.99,,2013-09-25 03:54:00,
2013-09-24 23:14:00,51.0,46.0,29.76,SSW,206,0.0,-999.0,84,-99.99,,,-99.99,,2013-09-25 04:14:00,
2013-09-24 23:24:00,51.0,46.0,29.76,SSW,206,0.0,-999.0,84,-99.99,,,-99.99,,2013-09-25 04:24:00,
2013-09-24 23:54:00,49.0,45.0,29.76,SSW,206,0.0,-999.0,86,-99.99,,,-99.99,,2013-09-25 04:54:00,